Terminal Aerodrome Forecast
Issued by NWS Quad Cities IA IL

Home | Current Version | Previous Version | Text Only | Print | Product List | Glossary Off
Versions: 1 2 3 4 5 6 7 8 9 10 11 12 13 14 15 16 17 18 19

000
FTUS43 KDVN 011300 AAA
TAFDBQ
TAF AMD
KDBQ 011304Z 0113/0212 VRB03KT 1/4SM FZFG VV001
     FM011600 VRB03KT 4SM BR OVC022
     FM011630 23009KT P6SM BKN030
     FM011900 27012KT P6SM SCT030 BKN120
     FM020000 30007KT P6SM SKC=

USA.gov is the U.S. government's official web portal to all federal, state and local government web resources and services.